Time;durP1;ratioP1;P1;durP2;ratioP2;P2;SDS_P1;SDS_P2;PMS_P1;PMS_P2;Temp;Humidity;BMP_temperature;BMP_pressure;BME280_temperature;BME280_humidity;BME280_pressure;Samples;Min_cycle;Max_cycle;Signal;HPM_P1;HPM_P2
2022/01/06 11:27:06;;;;;;;17.17;3.03;;;5.70;99.30;;;;;;5082995;27;20122;-76
2022/01/06 11:29:34;;;;;;;;;;;5.70;99.90;;;;;;5050311;28;20806;-81
2022/01/06 11:32:02;;;;;;;16.30;2.80;;;5.70;99.90;;;;;;5049153;28;19937;-83
2022/01/06 11:34:35;;;;;;;16.33;2.80;;;5.80;99.90;;;;;;5050205;28;20080;-85
2022/01/06 11:37:09;;;;;;;22.00;3.47;;;5.90;99.90;;;;;;5049588;28;20055;-83
2022/01/06 11:39:34;;;;;;;23.33;3.47;;;6.00;99.90;;;;;;5050325;28;20539;-80
2022/01/06 11:42:11;;;;;;;17.83;3.30;;;6.00;99.90;;;;;;5066346;28;20049;-78
2022/01/06 11:44:52;;;;;;;16.10;2.97;;;6.10;99.90;;;;;;5047413;28;20131;-74
2022/01/06 11:47:32;;;;;;;18.77;4.10;;;6.10;99.90;;;;;;5065717;28;20495;-73
2022/01/06 11:50:09;;;;;;;14.87;3.27;;;6.20;99.90;;;;;;5068124;28;20048;-72
2022/01/06 11:52:36;;;;;;;20.17;3.73;;;6.30;99.90;;;;;;5047139;28;20404;-73
2022/01/06 11:55:12;;;;;;;22.07;3.07;;;6.30;99.90;;;;;;5048101;28;20106;-74
2022/01/06 11:57:38;;;;;;;21.97;3.93;;;6.40;99.90;;;;;;5065530;28;20436;-74
2022/01/06 12:00:22;;;;;;;23.17;3.10;;;6.40;99.90;;;;;;5047893;28;20053;-79
2022/01/06 12:03:11;;;;;;;15.83;3.83;;;6.50;99.90;;;;;;5067571;28;20033;-79
2022/01/06 12:05:49;;;;;;;20.97;3.07;;;6.50;99.90;;;;;;5064515;28;20040;-75
2022/01/06 12:08:20;;;;;;;15.40;2.80;;;6.60;99.90;;;;;;5028186;28;20068;-74
2022/01/06 12:10:48;;;;;;;15.82;3.40;;;6.60;99.90;;;;;;5027710;28;20045;-79
2022/01/06 12:13:15;;;;;;;24.07;3.70;;;6.60;99.90;;;;;;5051581;28;20501;-83
2022/01/06 12:16:01;;;;;;;20.83;3.67;;;6.60;99.90;;;;;;5050428;28;20585;-83
2022/01/06 12:18:28;;;;;;;17.17;2.93;;;6.70;99.90;;;;;;5050460;28;20186;-79
2022/01/06 12:20:56;;;;;;;13.83;2.80;;;6.70;99.90;;;;;;5041699;28;20521;-83
2022/01/06 12:23:23;;;;;;;17.87;3.30;;;6.70;99.90;;;;;;5045890;28;20064;-79
2022/01/06 12:25:59;;;;;;;17.60;3.30;;;6.80;99.90;;;;;;5045832;28;20522;-82
2022/01/06 12:28:26;;;;;;;17.37;3.00;;;6.80;99.90;;;;;;5054141;28;20049;-82
2022/01/06 12:31:00;;;;;;;14.83;2.63;;;6.80;99.90;;;;;;5035192;28;20033;-78
2022/01/06 12:33:31;;;;;;;17.33;2.63;;;6.90;99.90;;;;;;5027848;28;20474;-80
2022/01/06 12:35:57;;;;;;;17.07;3.13;;;6.90;99.90;;;;;;5028883;28;20059;-83
2022/01/06 12:38:31;;;;;;;16.67;2.57;;;6.90;99.90;;;;;;5020386;28;20057;-81
2022/01/06 12:41:01;;;;;;;15.37;2.57;;;7.00;99.90;;;;;;5020560;28;20045;-82
2022/01/06 12:43:32;;;;;;;11.13;2.30;;;7.00;99.90;;;;;;5042052;28;20055;-81
2022/01/06 12:46:10;;;;;;;17.17;3.25;;;7.10;99.90;;;;;;5029488;28;20054;-74
2022/01/06 12:48:41;;;;;;;14.73;2.60;;;7.10;99.90;;;;;;5030473;28;20053;-77
2022/01/06 12:51:10;;;;;;;15.00;3.17;;;7.10;99.90;;;;;;5013410;28;20490;-74
2022/01/06 12:53:44;;;;;;;20.97;3.50;;;7.10;99.90;;;;;;5031469;28;20084;-75
2022/01/06 12:56:43;;;;;;;17.70;3.90;;;7.10;99.90;;;;;;5013209;28;20501;-76
2022/01/06 12:59:12;;;;;;;18.03;4.10;;;7.10;99.70;;;;;;4961489;28;20588;-76
2022/01/06 13:01:39;;;;;;;25.37;3.70;;;7.20;99.90;;;;;;5011544;28;20398;-76
2022/01/06 13:04:09;;;;;;;25.47;4.20;;;7.20;99.90;;;;;;5029841;28;20144;-75
2022/01/06 13:06:39;;;;;;;14.47;3.43;;;7.20;99.80;;;;;;5030607;28;20056;-76
2022/01/06 13:09:14;;;;;;;20.23;4.67;;;7.20;99.70;;;;;;5012250;28;20048;-75
2022/01/06 13:11:48;;;;;;;23.53;5.67;;;7.30;99.70;;;;;;5030934;28;20084;-75
2022/01/06 13:14:46;;;;;;;15.93;3.17;;;7.30;99.60;;;;;;5031519;28;20575;-75
2022/01/06 19:06:10;;;;;;;15.60;5.70;;;4.10;99.90;;;;;;5122865;27;20747;-64
2022/01/06 19:08:36;;;;;;;12.63;4.13;;;4.00;99.90;;;;;;5126248;28;20277;-62
2022/01/06 19:11:02;;;;;;;15.00;4.70;;;4.00;99.90;;;;;;5126043;28;20051;-65
2022/01/06 19:13:31;;;;;;;15.20;4.20;;;4.00;99.90;;;;;;5125842;28;20100;-65
2022/01/06 19:15:56;;;;;;;12.77;4.93;;;4.00;99.90;;;;;;5125110;28;20770;-65
2022/01/06 19:18:22;;;;;;;12.87;3.90;;;4.00;99.90;;;;;;5125837;27;20281;-64
2022/01/06 19:20:52;;;;;;;15.60;6.17;;;4.10;99.90;;;;;;5126028;27;20138;-65
2022/01/06 19:23:18;;;;;;;16.13;3.93;;;4.10;99.90;;;;;;5125844;28;20408;-65
2022/01/06 19:25:44;;;;;;;14.97;4.73;;;4.20;99.90;;;;;;5125235;28;21092;-66
2022/01/06 19:28:10;;;;;;;13.33;3.67;;;4.20;99.90;;;;;;5126315;28;20042;-64
2022/01/06 19:30:36;;;;;;;21.93;4.13;;;4.20;99.90;;;;;;5126371;28;20054;-65
2022/01/06 19:33:02;;;;;;;12.13;4.27;;;4.30;99.90;;;;;;5126849;28;20281;-65
2022/01/06 19:35:29;;;;;;;18.83;4.53;;;4.30;99.90;;;;;;5125532;28;20048;-65
2022/01/06 19:37:55;;;;;;;16.40;5.00;;;4.30;99.90;;;;;;5125562;28;20284;-66
2022/01/06 19:40:20;;;;;;;11.60;4.43;;;4.40;99.90;;;;;;5125082;27;20263;-65
2022/01/06 19:42:50;;;;;;;19.70;6.10;;;4.40;99.90;;;;;;5125714;28;20046;-65
2022/01/06 19:45:19;;;;;;;13.83;5.57;;;4.40;99.90;;;;;;5126229;28;20367;-65
2022/01/06 19:47:46;;;;;;;16.67;6.27;;;4.40;99.90;;;;;;5126320;28;20125;-65
2022/01/06 19:50:14;;;;;;;17.07;6.10;;;4.50;99.90;;;;;;5125570;28;20050;-65
2022/01/06 19:52:43;;;;;;;18.40;6.00;;;4.50;99.90;;;;;;5126352;28;20054;-64
2022/01/06 19:55:09;;;;;;;18.47;6.70;;;4.60;99.90;;;;;;5126398;28;20281;-65
2022/01/06 19:57:35;;;;;;;17.17;7.60;;;4.60;99.90;;;;;;5125362;28;20042;-65
2022/01/06 20:00:01;;;;;;;21.17;7.40;;;4.50;99.90;;;;;;5126163;28;20039;-65
2022/01/06 20:02:28;;;;;;;19.13;7.53;;;4.60;99.90;;;;;;5125576;28;20511;-65
2022/01/06 20:04:54;;;;;;;15.70;7.70;;;4.60;99.90;;;;;;5125311;27;20062;-65
2022/01/06 20:07:19;;;;;;;23.63;11.53;;;4.60;99.90;;;;;;5125950;27;20048;-64
